Time;durP1;ratioP1;P1;durP2;ratioP2;P2;SDS_P1;SDS_P2;PMS_P1;PMS_P2;Temp;Humidity;BMP_temperature;BMP_pressure;BME280_temperature;BME280_humidity;BME280_pressure;Samples;Min_cycle;Max_cycle;Signal;HPM_P1;HPM_P2
2022/07/04 00:00:27;;;;;;;4.85;1.83;;;19.40;62.70;;;;;;5014572;28;20113;-65
2022/07/04 00:02:53;;;;;;;8.05;2.05;;;19.40;62.70;;;;;;5013418;28;20029;-65
2022/07/04 00:05:19;;;;;;;6.22;2.03;;;19.30;62.80;;;;;;5012650;28;20032;-65
2022/07/04 00:07:47;;;;;;;5.80;1.80;;;19.30;62.90;;;;;;5012280;28;20091;-65
2022/07/04 00:10:18;;;;;;;5.07;1.75;;;19.30;63.00;;;;;;5014405;28;20084;-65
2022/07/04 00:12:44;;;;;;;5.05;2.10;;;19.30;63.20;;;;;;5012779;28;20087;-65
2022/07/04 00:15:11;;;;;;;4.28;1.77;;;19.20;63.20;;;;;;5016590;28;20029;-65
2022/07/04 00:17:37;;;;;;;6.70;1.85;;;19.20;63.30;;;;;;5013452;28;20022;-65
2022/07/04 00:20:04;;;;;;;5.55;1.90;;;19.20;63.30;;;;;;5013372;28;20056;-65
2022/07/04 00:22:30;;;;;;;7.25;2.30;;;19.20;63.40;;;;;;5013989;28;20411;-65
2022/07/04 00:24:56;;;;;;;5.93;2.20;;;19.20;63.40;;;;;;5012550;28;20053;-65
2022/07/04 00:27:21;;;;;;;4.18;1.60;;;19.20;63.50;;;;;;5028582;28;20122;-67
2022/07/04 00:29:47;;;;;;;4.85;1.50;;;19.10;63.60;;;;;;5012570;28;20029;-65
2022/07/04 00:32:13;;;;;;;4.38;1.67;;;19.20;63.70;;;;;;5028650;28;20038;-65
2022/07/04 00:34:39;;;;;;;4.85;1.83;;;19.10;63.70;;;;;;5012034;28;20030;-66
2022/07/04 00:37:04;;;;;;;5.22;1.92;;;19.10;63.70;;;;;;5011846;28;20072;-65
2022/07/04 00:39:30;;;;;;;5.43;2.00;;;19.10;63.80;;;;;;5023439;28;20030;-65
2022/07/04 00:41:56;;;;;;;5.53;2.08;;;19.00;63.80;;;;;;5014214;28;20030;-65
2022/07/04 00:44:22;;;;;;;5.45;1.80;;;19.00;63.80;;;;;;5011863;28;20026;-65
2022/07/04 00:46:48;;;;;;;3.47;1.50;;;19.00;63.90;;;;;;5014812;28;20025;-65
2022/07/04 00:49:15;;;;;;;4.97;1.80;;;19.00;63.90;;;;;;5016823;28;20025;-65
2022/07/04 00:51:43;;;;;;;6.40;1.85;;;19.00;64.00;;;;;;5017716;28;20037;-65
2022/07/04 00:54:11;;;;;;;4.30;1.70;;;19.00;64.00;;;;;;5015766;28;20048;-65
2022/07/04 00:56:39;;;;;;;4.85;1.95;;;19.00;64.10;;;;;;5016177;28;20076;-65
2022/07/04 00:59:06;;;;;;;8.30;2.47;;;18.90;64.20;;;;;;5017068;28;20455;-65
2022/07/04 01:01:32;;;;;;;4.90;1.73;;;18.90;64.30;;;;;;5017470;28;20028;-65
2022/07/04 01:03:57;;;;;;;8.68;2.20;;;18.90;64.40;;;;;;5016796;28;20034;-65
2022/07/04 01:06:24;;;;;;;4.30;1.58;;;18.90;64.50;;;;;;5014992;28;20072;-65
2022/07/04 01:08:49;;;;;;;5.40;1.80;;;18.80;64.50;;;;;;5015994;28;20367;-65
2022/07/04 01:11:16;;;;;;;4.63;1.85;;;18.80;64.50;;;;;;5016206;28;20026;-65
2022/07/04 01:13:42;;;;;;;4.28;1.75;;;18.80;64.60;;;;;;5016853;28;20101;-65
2022/07/04 01:16:09;;;;;;;5.72;1.80;;;18.80;64.70;;;;;;5018534;28;20100;-65
2022/07/04 01:18:34;;;;;;;5.32;1.98;;;18.80;64.80;;;;;;5033248;28;20152;-65
2022/07/04 01:21:00;;;;;;;6.20;2.00;;;18.70;64.80;;;;;;5018111;28;20101;-66
2022/07/04 01:23:25;;;;;;;6.03;1.95;;;18.70;64.90;;;;;;5030175;28;20052;-65
2022/07/04 01:25:52;;;;;;;5.75;2.30;;;18.70;65.00;;;;;;5015728;28;20064;-65
2022/07/04 01:28:24;;;;;;;4.68;2.25;;;18.70;65.10;;;;;;5036065;28;20033;-65
2022/07/04 01:30:50;;;;;;;6.78;2.17;;;18.70;65.20;;;;;;5018272;28;20325;-65
2022/07/04 01:33:17;;;;;;;4.95;2.35;;;18.70;65.30;;;;;;5017315;28;20049;-65
2022/07/04 01:35:46;;;;;;;8.57;2.72;;;18.70;65.40;;;;;;5015590;28;20092;-65
2022/07/04 01:38:12;;;;;;;8.15;2.83;;;18.60;65.50;;;;;;5017139;28;20029;-65
2022/07/04 01:40:38;;;;;;;7.20;2.95;;;18.60;65.60;;;;;;5015405;28;20032;-65
2022/07/04 01:43:04;;;;;;;5.10;2.53;;;18.60;65.70;;;;;;5015657;28;20030;-65
2022/07/04 01:45:29;;;;;;;6.60;2.28;;;18.60;65.80;;;;;;5013568;28;20033;-65
2022/07/04 01:47:56;;;;;;;6.18;2.70;;;18.50;65.80;;;;;;5016957;28;20030;-65
2022/07/04 01:50:22;;;;;;;5.28;2.40;;;18.50;65.90;;;;;;5014239;28;20032;-65
2022/07/04 01:52:48;;;;;;;6.35;2.63;;;18.50;65.90;;;;;;5011678;28;20022;-65
2022/07/04 01:55:13;;;;;;;5.70;2.33;;;18.50;65.90;;;;;;5027958;28;20037;-65
2022/07/04 01:57:39;;;;;;;10.30;2.30;;;18.50;66.00;;;;;;5016419;28;20033;-65
2022/07/04 02:02:51;;;;;;;5.20;1.95;;;18.40;66.10;;;;;;5015928;28;20096;-65
2022/07/04 02:05:18;;;;;;;5.53;2.15;;;18.40;66.10;;;;;;5012560;28;20034;-65
2022/07/04 02:07:44;;;;;;;7.22;2.28;;;18.40;66.10;;;;;;5016529;28;20056;-65
2022/07/04 02:10:10;;;;;;;7.05;2.60;;;18.40;66.20;;;;;;5019322;28;20050;-65
2022/07/04 02:15:20;;;;;;;6.38;2.38;;;18.40;66.40;;;;;;5025450;28;20050;-65
2022/07/04 02:17:45;;;;;;;6.35;2.45;;;18.30;66.50;;;;;;5023503;28;20032;-65
2022/07/04 02:20:11;;;;;;;7.85;2.83;;;18.30;66.60;;;;;;5025065;28;20030;-65
2022/07/04 02:22:37;;;;;;;7.38;2.90;;;18.30;66.70;;;;;;5019740;28;20076;-65
2022/07/04 02:25:03;;;;;;;5.78;2.67;;;18.30;66.70;;;;;;5017542;28;20041;-65
2022/07/04 02:27:29;;;;;;;7.55;2.85;;;18.30;66.80;;;;;;5020015;28;20030;-65
2022/07/04 02:29:55;;;;;;;6.20;2.63;;;18.30;66.90;;;;;;5013335;28;20037;-65
2022/07/04 02:32:20;;;;;;;6.07;2.60;;;18.30;67.00;;;;;;5016504;28;20029;-65
2022/07/04 02:34:46;;;;;;;6.13;2.90;;;18.30;67.00;;;;;;5016565;28;20088;-65
2022/07/04 02:37:12;;;;;;;5.78;2.70;;;18.30;67.10;;;;;;5016831;28;20164;-65
2022/07/04 02:39:37;;;;;;;5.80;2.92;;;18.20;67.00;;;;;;5029021;28;20091;-65
2022/07/04 02:42:03;;;;;;;6.97;2.95;;;18.20;67.10;;;;;;5015527;28;20041;-65
2022/07/04 02:44:30;;;;;;;6.00;2.80;;;18.20;67.30;;;;;;5013932;28;20033;-65
2022/07/04 02:46:56;;;;;;;5.30;2.55;;;18.20;67.40;;;;;;5013275;28;20067;-65
2022/07/04 02:49:22;;;;;;;5.95;2.85;;;18.20;67.50;;;;;;5033015;28;20461;-65
2022/07/04 02:51:47;;;;;;;9.20;3.20;;;18.20;67.60;;;;;;5014376;28;20022;-65
2022/07/04 02:54:13;;;;;;;6.28;2.88;;;18.10;67.60;;;;;;5009529;28;20422;-65
2022/07/04 02:56:39;;;;;;;10.35;2.92;;;18.10;67.70;;;;;;5017884;28;20018;-65
2022/07/04 02:59:04;;;;;;;8.40;3.70;;;18.10;67.70;;;;;;5021782;28;20477;-65
2022/07/04 03:01:31;;;;;;;6.85;3.05;;;18.10;67.80;;;;;;5018915;28;20490;-65
2022/07/04 03:03:57;;;;;;;7.43;3.72;;;18.10;67.90;;;;;;5018690;28;20026;-65
2022/07/04 03:06:23;;;;;;;6.90;3.70;;;18.10;68.00;;;;;;5016704;28;20657;-65
2022/07/04 03:08:48;;;;;;;8.20;3.97;;;18.10;68.10;;;;;;5022962;28;20452;-65
2022/07/04 03:11:14;;;;;;;6.82;3.83;;;18.00;68.20;;;;;;5022269;28;20042;-65
2022/07/04 03:13:40;;;;;;;8.43;3.92;;;18.00;68.30;;;;;;5015773;28;20046;-65
2022/07/04 03:16:06;;;;;;;11.40;4.22;;;18.00;68.40;;;;;;5015910;28;20040;-62
2022/07/04 03:18:32;;;;;;;10.73;4.95;;;18.00;68.40;;;;;;5014948;28;20030;-62
2022/07/04 03:20:57;;;;;;;8.13;4.20;;;18.00;68.60;;;;;;5014948;28;20052;-63
2022/07/04 03:23:23;;;;;;;8.13;4.03;;;18.00;68.60;;;;;;5011422;28;20026;-62
2022/07/04 03:25:49;;;;;;;8.00;4.55;;;18.00;68.70;;;;;;5027103;28;20144;-62
2022/07/04 03:28:14;;;;;;;8.77;4.38;;;18.00;68.80;;;;;;5011831;28;20034;-62
2022/07/04 03:30:40;;;;;;;8.90;4.32;;;18.00;68.80;;;;;;5014022;28;20033;-62
2022/07/04 03:33:06;;;;;;;9.57;4.63;;;18.00;68.80;;;;;;5010893;28;20026;-62
2022/07/04 03:35:31;;;;;;;10.23;4.55;;;18.00;68.80;;;;;;5013039;28;20100;-63
2022/07/04 03:37:57;;;;;;;10.85;5.25;;;18.00;68.80;;;;;;5013914;28;20025;-63
2022/07/04 03:40:23;;;;;;;9.05;4.82;;;18.00;68.90;;;;;;5012839;28;20078;-62
2022/07/04 03:42:49;;;;;;;7.65;4.28;;;18.00;69.00;;;;;;5012847;28;20022;-62
2022/07/04 03:45:15;;;;;;;8.30;5.32;;;18.00;69.00;;;;;;5013036;28;20558;-62
2022/07/04 03:47:41;;;;;;;7.97;4.85;;;17.90;69.00;;;;;;5012561;28;20022;-62
2022/07/04 03:50:07;;;;;;;7.63;4.10;;;17.90;69.00;;;;;;5012993;28;20418;-62
2022/07/04 03:52:33;;;;;;;8.30;4.30;;;17.90;69.00;;;;;;5012296;28;20047;-62
2022/07/04 03:54:58;;;;;;;10.32;5.18;;;17.90;69.10;;;;;;5012939;28;20120;-62
2022/07/04 03:57:24;;;;;;;12.73;4.85;;;17.90;69.20;;;;;;5012743;28;20029;-62
2022/07/04 03:59:50;;;;;;;8.82;4.07;;;17.90;69.20;;;;;;4996041;28;20022;-62
2022/07/04 04:02:15;;;;;;;9.30;4.50;;;17.90;69.20;;;;;;5013761;28;20428;-62
2022/07/04 04:07:25;;;;;;;8.60;5.00;;;17.90;69.30;;;;;;5006221;28;20073;-62
2022/07/04 04:09:51;;;;;;;8.52;4.47;;;17.90;69.20;;;;;;5011695;28;20054;-62
2022/07/04 04:12:17;;;;;;;8.43;4.72;;;17.90;69.30;;;;;;5010735;28;20450;-62
2022/07/04 04:14:43;;;;;;;8.70;4.65;;;17.90;69.30;;;;;;5006895;28;20053;-65
2022/07/04 04:17:09;;;;;;;9.10;5.25;;;17.90;69.30;;;;;;5011844;28;20026;-61
2022/07/04 04:19:35;;;;;;;8.98;5.20;;;18.00;69.40;;;;;;5023354;28;20109;-62
2022/07/04 04:22:00;;;;;;;9.27;5.20;;;18.00;69.40;;;;;;5018724;28;20438;-61
2022/07/04 04:24:26;;;;;;;9.15;4.70;;;18.00;69.40;;;;;;5027928;28;20040;-62
2022/07/04 04:26:52;;;;;;;8.50;5.05;;;18.00;69.40;;;;;;5020709;28;20038;-62
2022/07/04 04:29:17;;;;;;;8.27;4.68;;;18.00;69.40;;;;;;5032811;28;20030;-62
2022/07/04 04:31:43;;;;;;;7.95;4.63;;;18.00;69.40;;;;;;5029449;28;20026;-61
2022/07/04 04:34:08;;;;;;;9.30;4.70;;;18.10;69.50;;;;;;5016716;28;20094;-61
2022/07/04 04:36:34;;;;;;;9.55;5.05;;;18.00;69.40;;;;;;5038559;28;20029;-62
2022/07/04 04:39:00;;;;;;;9.27;4.65;;;18.00;69.40;;;;;;5027850;28;20033;-61
2022/07/04 04:41:25;;;;;;;10.15;4.50;;;18.10;69.40;;;;;;5038417;28;20037;-61
2022/07/04 04:43:51;;;;;;;9.55;4.82;;;18.10;69.30;;;;;;5031049;28;20048;-62
2022/07/04 04:46:17;;;;;;;8.40;4.53;;;18.10;69.20;;;;;;5033349;28;20143;-62
2022/07/04 04:48:43;;;;;;;8.10;4.20;;;18.10;69.20;;;;;;5027521;28;20030;-61
2022/07/04 04:51:08;;;;;;;7.70;4.30;;;18.20;69.10;;;;;;5027846;28;20025;-61
2022/07/04 04:53:34;;;;;;;8.40;4.32;;;18.20;69.00;;;;;;5024334;28;20363;-61
2022/07/04 04:56:00;;;;;;;10.52;4.32;;;18.30;68.90;;;;;;5028577;28;20048;-61
2022/07/04 04:58:25;;;;;;;8.18;3.75;;;18.30;68.80;;;;;;5029499;28;20018;-62
2022/07/04 05:00:51;;;;;;;8.27;4.47;;;18.30;68.70;;;;;;5028040;28;20065;-61
2022/07/04 05:03:17;;;;;;;7.00;3.72;;;18.30;68.70;;;;;;5031017;28;20069;-61
2022/07/04 05:05:44;;;;;;;7.30;3.45;;;18.40;68.70;;;;;;5023484;28;20438;-62
2022/07/04 05:08:10;;;;;;;7.43;3.78;;;18.40;68.60;;;;;;5016681;28;20025;-62
2022/07/04 05:10:35;;;;;;;7.72;4.07;;;18.50;68.40;;;;;;5011506;28;20056;-62
2022/07/04 05:13:03;;;;;;;9.23;4.28;;;18.50;68.30;;;;;;5031796;28;20044;-62
2022/07/04 05:15:28;;;;;;;6.30;3.33;;;18.60;68.10;;;;;;5020432;28;20030;-62
2022/07/04 05:17:54;;;;;;;8.60;3.70;;;19.30;66.80;;;;;;5015042;28;20505;-62
2022/07/04 05:20:20;;;;;;;8.18;4.00;;;20.10;64.30;;;;;;5017802;28;20033;-62
2022/07/04 05:22:45;;;;;;;8.10;3.92;;;20.30;63.80;;;;;;5023263;28;20034;-62
2022/07/04 05:25:11;;;;;;;9.60;4.55;;;20.10;64.10;;;;;;5027312;28;20026;-62
2022/07/04 05:27:37;;;;;;;6.32;3.60;;;20.00;64.50;;;;;;4999655;28;20483;-63
2022/07/04 05:30:03;;;;;;;8.25;4.10;;;19.90;64.70;;;;;;5036380;28;20345;-62
2022/07/04 05:32:29;;;;;;;9.35;4.53;;;19.90;64.90;;;;;;5016947;28;20026;-62
2022/07/04 05:34:56;;;;;;;7.03;4.15;;;19.80;65.00;;;;;;5022227;28;20030;-62
2022/07/04 05:37:21;;;;;;;7.72;4.15;;;19.80;64.90;;;;;;5019554;28;20061;-63
2022/07/04 05:39:48;;;;;;;6.88;3.80;;;19.80;64.90;;;;;;5025917;28;20053;-62
2022/07/04 05:42:14;;;;;;;8.57;3.75;;;19.90;64.90;;;;;;5021370;28;20458;-62
2022/07/04 05:44:40;;;;;;;8.63;3.90;;;19.90;64.70;;;;;;5035867;28;20030;-63
2022/07/04 05:47:06;;;;;;;8.43;3.85;;;19.90;64.70;;;;;;5017768;28;20034;-62
2022/07/04 05:49:31;;;;;;;8.68;4.28;;;20.00;64.70;;;;;;4999737;28;20026;-62
2022/07/04 05:51:57;;;;;;;8.45;3.28;;;20.00;64.50;;;;;;5016913;28;20443;-63
2022/07/04 05:54:22;;;;;;;7.78;3.63;;;20.10;64.60;;;;;;5025621;28;20100;-63
2022/07/04 05:56:48;;;;;;;6.55;3.50;;;20.10;64.50;;;;;;5015125;28;20443;-62
2022/07/04 05:59:15;;;;;;;6.63;3.42;;;20.20;64.50;;;;;;5015597;28;20036;-63
2022/07/04 06:01:40;;;;;;;8.13;3.35;;;20.20;64.50;;;;;;5023993;28;20084;-63
2022/07/04 06:04:06;;;;;;;6.38;3.00;;;20.30;64.40;;;;;;4999344;28;20030;-63
2022/07/04 06:06:32;;;;;;;8.95;3.30;;;20.40;64.40;;;;;;5015665;28;20040;-63
2022/07/04 06:08:58;;;;;;;7.32;3.38;;;20.50;64.20;;;;;;5013389;28;20038;-63
2022/07/04 06:11:23;;;;;;;7.15;3.17;;;20.60;64.00;;;;;;5015411;28;20057;-63
2022/07/04 06:13:49;;;;;;;6.85;2.85;;;20.70;63.90;;;;;;5030287;28;20036;-62
2022/07/04 06:16:15;;;;;;;8.05;3.13;;;20.80;63.80;;;;;;5010742;28;20018;-63
2022/07/04 06:18:41;;;;;;;7.40;2.40;;;20.80;63.70;;;;;;5014875;28;20360;-62
2022/07/04 06:21:07;;;;;;;8.20;2.95;;;20.80;64.30;;;;;;5016657;28;20041;-63
2022/07/04 06:23:33;;;;;;;8.40;2.90;;;20.70;63.70;;;;;;5013303;28;20057;-62
2022/07/04 06:25:59;;;;;;;7.78;2.65;;;20.60;63.70;;;;;;5016206;28;20474;-62
2022/07/04 06:28:24;;;;;;;7.57;3.17;;;20.50;63.70;;;;;;5013740;28;20030;-63
2022/07/04 06:30:50;;;;;;;6.78;3.25;;;20.50;63.80;;;;;;5016042;28;20033;-62
2022/07/04 06:33:16;;;;;;;9.00;3.00;;;20.40;63.70;;;;;;5014148;28;20045;-63
2022/07/04 06:38:36;;;;;;;7.75;3.28;;;20.50;63.30;;;;;;5009481;28;20045;-62
2022/07/04 06:41:02;;;;;;;7.25;3.20;;;20.60;63.20;;;;;;5013671;28;20033;-63
2022/07/04 06:43:28;;;;;;;7.68;2.88;;;20.60;63.00;;;;;;5012617;28;20100;-62
2022/07/04 06:45:53;;;;;;;11.02;3.70;;;20.60;62.70;;;;;;5014645;28;20034;-62
2022/07/04 06:48:19;;;;;;;6.72;3.50;;;20.70;63.20;;;;;;5014714;28;20187;-63
2022/07/04 06:50:45;;;;;;;7.63;3.15;;;20.70;62.40;;;;;;5012220;28;20038;-63
2022/07/04 06:53:11;;;;;;;7.50;3.05;;;20.60;62.40;;;;;;5015869;28;20371;-62
2022/07/04 06:55:42;;;;;;;7.82;3.40;;;20.70;62.50;;;;;;5028952;28;20063;-62
2022/07/04 06:58:08;;;;;;;8.35;3.05;;;20.80;62.20;;;;;;5014642;28;20026;-64
2022/07/04 07:00:35;;;;;;;7.55;2.78;;;20.90;62.20;;;;;;5010104;28;20037;-62
2022/07/04 07:03:02;;;;;;;7.75;3.15;;;20.90;62.20;;;;;;5012522;28;20038;-63
2022/07/04 07:05:29;;;;;;;10.27;3.75;;;20.80;62.20;;;;;;5014059;28;20053;-63
2022/07/04 07:07:55;;;;;;;9.05;3.53;;;20.80;62.20;;;;;;5006563;28;20041;-62
2022/07/04 07:10:21;;;;;;;7.95;3.97;;;20.80;62.20;;;;;;5013897;28;20034;-63
2022/07/04 07:12:47;;;;;;;7.38;3.17;;;20.90;62.10;;;;;;5025248;28;20041;-63
2022/07/04 07:15:13;;;;;;;7.90;3.67;;;21.00;62.10;;;;;;5014319;28;20040;-63
2022/07/04 07:17:42;;;;;;;7.80;3.33;;;21.10;62.00;;;;;;5014203;28;20030;-63
2022/07/04 07:20:08;;;;;;;8.52;3.63;;;21.20;61.80;;;;;;5019209;28;20419;-63
2022/07/04 07:22:34;;;;;;;9.75;3.72;;;21.20;61.90;;;;;;5023130;28;20358;-63
2022/07/04 07:24:59;;;;;;;8.75;3.70;;;21.20;62.00;;;;;;5024781;28;20025;-63
2022/07/04 07:27:26;;;;;;;8.23;3.90;;;21.20;62.10;;;;;;5009424;28;20029;-63
2022/07/04 07:29:51;;;;;;;9.30;3.97;;;21.20;62.20;;;;;;5028254;28;20045;-62
2022/07/04 07:32:17;;;;;;;11.95;4.75;;;21.10;62.20;;;;;;5021700;28;20021;-63
2022/07/04 07:34:43;;;;;;;9.85;3.88;;;21.10;62.40;;;;;;5022301;28;20121;-63
2022/07/04 07:37:09;;;;;;;13.68;4.72;;;21.10;62.50;;;;;;5013259;28;20343;-63
2022/07/04 07:39:35;;;;;;;8.98;3.58;;;21.20;62.60;;;;;;5015823;28;20018;-63
2022/07/04 07:42:00;;;;;;;9.82;3.45;;;21.20;62.50;;;;;;5018122;28;20030;-65
2022/07/04 07:44:26;;;;;;;10.55;3.83;;;21.20;62.60;;;;;;5018814;28;20323;-62
2022/07/04 07:46:52;;;;;;;8.65;3.35;;;21.30;62.60;;;;;;5014032;28;20475;-64
2022/07/04 07:49:17;;;;;;;9.02;3.95;;;21.40;62.50;;;;;;5013536;28;20040;-66
2022/07/04 07:51:43;;;;;;;10.93;4.53;;;21.50;62.30;;;;;;5013066;28;20340;-68
2022/07/04 07:54:09;;;;;;;9.52;3.88;;;21.70;62.00;;;;;;5014206;28;20038;-71
2022/07/04 07:56:34;;;;;;;10.23;4.15;;;22.10;61.40;;;;;;5012497;28;20117;-64
2022/07/04 07:59:00;;;;;;;10.43;3.80;;;22.50;60.70;;;;;;5029078;28;20108;-64
2022/07/04 08:01:26;;;;;;;9.75;4.00;;;22.90;59.90;;;;;;5007608;28;20021;-65
2022/07/04 08:06:36;;;;;;;8.60;3.85;;;23.10;59.40;;;;;;5013192;28;20029;-64
2022/07/04 08:09:02;;;;;;;10.60;4.47;;;23.10;59.30;;;;;;5014401;28;20063;-66
2022/07/04 08:11:28;;;;;;;10.48;4.38;;;23.20;59.40;;;;;;5001796;28;20037;-65
2022/07/04 08:13:53;;;;;;;10.55;4.40;;;23.40;58.80;;;;;;5019518;28;20080;-63
2022/07/04 08:16:19;;;;;;;9.10;3.38;;;23.50;58.50;;;;;;5010928;28;20084;-67
2022/07/04 08:18:45;;;;;;;9.70;3.95;;;23.50;58.70;;;;;;5013495;28;20033;-64
2022/07/04 08:21:11;;;;;;;8.80;4.30;;;23.70;58.50;;;;;;5012890;28;20173;-63
2022/07/04 08:23:37;;;;;;;9.45;4.32;;;23.80;58.20;;;;;;5013139;28;20029;-64
2022/07/04 08:26:03;;;;;;;11.27;4.03;;;23.80;58.20;;;;;;5011187;28;20473;-65
2022/07/04 08:28:29;;;;;;;10.63;3.92;;;23.60;58.40;;;;;;5013925;28;20033;-64
2022/07/04 08:30:54;;;;;;;9.38;3.92;;;23.40;58.70;;;;;;5012742;28;20038;-63
2022/07/04 08:33:20;;;;;;;12.07;4.68;;;23.30;59.10;;;;;;5012006;28;20057;-63
2022/07/04 08:35:46;;;;;;;8.43;4.13;;;23.20;59.30;;;;;;5010263;28;20068;-64
2022/07/04 08:38:11;;;;;;;9.30;4.47;;;23.10;59.50;;;;;;4995631;28;20117;-63
2022/07/04 08:40:37;;;;;;;8.98;4.32;;;23.10;59.50;;;;;;5013184;28;20359;-64
2022/07/04 08:43:03;;;;;;;9.90;4.38;;;23.10;59.50;;;;;;5008210;28;20026;-64
2022/07/04 08:45:32;;;;;;;10.15;3.95;;;23.10;59.40;;;;;;5015034;28;20038;-64
2022/07/04 08:48:02;;;;;;;9.18;3.83;;;23.10;59.60;;;;;;5010924;28;20041;-65
2022/07/04 08:51:02;;;;;;;8.32;4.30;;;23.10;59.70;;;;;;5005806;28;20038;-64
2022/07/04 08:53:31;;;;;;;8.18;4.00;;;23.10;59.70;;;;;;4992298;28;20099;-65
2022/07/04 08:58:45;;;;;;;8.98;3.83;;;23.10;59.80;;;;;;5014560;28;20105;-65
2022/07/04 09:01:15;;;;;;;11.10;4.53;;;23.20;59.60;;;;;;5010291;28;20070;-66
2022/07/04 09:03:43;;;;;;;10.48;4.30;;;23.40;59.10;;;;;;5008916;28;20474;-66
2022/07/04 09:06:09;;;;;;;8.90;4.47;;;23.30;59.00;;;;;;4990982;28;20026;-65
2022/07/04 09:08:36;;;;;;;9.75;4.65;;;23.30;59.70;;;;;;5004392;28;20030;-64
2022/07/04 09:11:02;;;;;;;10.80;4.43;;;23.60;58.80;;;;;;4998574;28;20034;-66
2022/07/04 09:13:29;;;;;;;7.57;3.65;;;23.80;58.30;;;;;;5014057;28;20033;-65
2022/07/04 09:15:55;;;;;;;9.45;4.10;;;23.80;58.30;;;;;;5009332;28;20108;-65
2022/07/04 09:18:25;;;;;;;9.00;3.90;;;23.70;58.30;;;;;;5014431;28;20030;-65
2022/07/04 09:20:52;;;;;;;10.73;4.30;;;23.60;58.70;;;;;;5015116;28;20022;-65
2022/07/04 09:23:26;;;;;;;8.23;3.80;;;23.60;58.90;;;;;;4997948;28;20033;-65
2022/07/04 09:26:06;;;;;;;12.00;4.45;;;23.70;58.40;;;;;;5012039;28;20359;-65
2022/07/04 09:28:33;;;;;;;9.50;4.38;;;23.80;58.40;;;;;;5015433;28;20029;-66
2022/07/04 09:30:59;;;;;;;11.02;4.07;;;23.70;58.40;;;;;;5017528;28;20022;-66
2022/07/04 09:34:04;;;;;;;10.38;4.00;;;23.50;58.70;;;;;;4998135;28;20026;-66
2022/07/04 09:36:32;;;;;;;9.90;4.03;;;23.50;58.90;;;;;;5006407;28;20069;-66
2022/07/04 09:39:24;;;;;;;9.07;3.90;;;23.40;59.00;;;;;;5013837;28;20030;-66
2022/07/04 09:41:56;;;;;;;7.30;4.28;;;23.20;59.20;;;;;;5013065;28;20478;-66
2022/07/04 09:44:45;;;;;;;9.05;4.47;;;23.10;59.40;;;;;;5015901;28;20116;-66
2022/07/04 09:47:30;;;;;;;9.30;4.65;;;22.90;59.60;;;;;;5029339;28;20060;-66
2022/07/04 09:50:06;;;;;;;8.48;4.28;;;22.80;60.40;;;;;;4997192;28;20371;-65
2022/07/04 09:52:43;;;;;;;9.15;3.97;;;22.80;59.90;;;;;;5014129;28;20099;-68
2022/07/04 09:55:08;;;;;;;9.57;4.05;;;23.10;59.60;;;;;;5010815;28;20121;-68
2022/07/04 09:57:34;;;;;;;9.82;4.05;;;23.40;59.10;;;;;;5005026;28;20113;-68
2022/07/04 10:00:22;;;;;;;8.85;3.30;;;23.70;58.60;;;;;;5013864;28;20041;-67
2022/07/04 10:02:49;;;;;;;11.38;3.60;;;24.00;58.10;;;;;;5014652;28;20455;-68
2022/07/04 10:05:29;;;;;;;6.75;2.45;;;24.20;57.40;;;;;;5015806;28;20032;-67
2022/07/04 10:07:56;;;;;;;9.32;3.20;;;24.20;56.90;;;;;;5016902;28;20048;-68
2022/07/04 10:10:35;;;;;;;8.18;3.20;;;24.00;57.20;;;;;;4994310;28;20054;-68
2022/07/04 10:13:06;;;;;;;5.43;2.40;;;24.00;57.20;;;;;;4998747;28;20033;-68
2022/07/04 10:15:35;;;;;;;6.40;2.88;;;24.20;56.90;;;;;;5012492;28;20455;-73
2022/07/04 10:18:01;;;;;;;7.32;2.80;;;24.50;56.10;;;;;;5013118;28;20022;-69
2022/07/04 10:20:26;;;;;;;7.50;2.25;;;24.80;55.60;;;;;;5011671;28;20121;-69
2022/07/04 10:22:52;;;;;;;7.90;2.63;;;24.90;55.10;;;;;;5014311;28;20044;-64
2022/07/04 10:25:18;;;;;;;8.00;2.50;;;25.10;54.70;;;;;;5014935;28;20038;-64
2022/07/04 10:27:44;;;;;;;6.53;2.47;;;25.30;54.30;;;;;;5016289;28;20355;-64
2022/07/04 10:30:14;;;;;;;6.13;2.28;;;25.50;53.90;;;;;;5013614;28;20037;-64
2022/07/04 10:32:43;;;;;;;9.82;2.55;;;25.70;53.50;;;;;;5013257;28;20062;-64
2022/07/04 10:35:12;;;;;;;6.40;2.35;;;25.80;53.10;;;;;;5014004;28;20061;-64
2022/07/04 10:38:03;;;;;;;4.57;1.80;;;25.50;53.00;;;;;;5013639;28;20041;-64
2022/07/04 10:40:56;;;;;;;7.07;2.63;;;25.30;53.10;;;;;;5019168;28;20129;-64
2022/07/04 10:43:37;;;;;;;4.35;1.63;;;25.00;53.40;;;;;;5002516;28;20037;-64
2022/07/04 10:46:15;;;;;;;;;;;24.80;54.30;;;;;;5014056;28;20033;-63
2022/07/04 10:48:55;;;;;;;7.70;1.98;;;24.50;53.90;;;;;;5006549;28;19967;-64
2022/07/04 10:51:58;;;;;;;5.13;1.80;;;24.40;54.20;;;;;;5012759;28;20028;-64
2022/07/04 10:54:32;;;;;;;5.47;1.90;;;24.20;54.10;;;;;;5011846;28;20044;-64
2022/07/04 10:57:19;;;;;;;4.50;2.08;;;24.00;54.30;;;;;;5014620;28;20033;-64
2022/07/04 10:59:55;;;;;;;5.93;2.38;;;23.90;54.60;;;;;;5014223;28;20103;-64
2022/07/04 11:02:22;;;;;;;7.80;2.30;;;23.80;54.70;;;;;;5015397;28;20033;-64
2022/07/04 11:04:58;;;;;;;6.97;1.80;;;23.70;54.70;;;;;;5027168;28;20466;-64
2022/07/04 11:07:30;;;;;;;6.55;1.98;;;23.70;54.60;;;;;;5012028;28;20030;-64
2022/07/04 11:10:11;;;;;;;4.00;1.85;;;23.80;54.60;;;;;;5013533;28;20459;-64
2022/07/04 11:12:55;;;;;;;5.88;1.77;;;24.00;54.10;;;;;;5015421;28;20072;-64
2022/07/04 11:15:32;;;;;;;4.95;1.85;;;24.20;53.80;;;;;;5013026;28;20034;-63
2022/07/04 11:18:03;;;;;;;4.50;1.92;;;24.20;53.40;;;;;;4996039;28;20100;-64
2022/07/04 11:20:31;;;;;;;6.70;1.98;;;24.30;53.00;;;;;;5014247;28;20030;-64
2022/07/04 11:23:09;;;;;;;5.50;2.20;;;24.30;53.00;;;;;;5028459;28;20132;-64
2022/07/04 11:25:36;;;;;;;5.28;2.28;;;24.60;52.50;;;;;;5018148;28;20057;-64
2022/07/04 11:28:30;;;;;;;5.28;2.08;;;24.80;52.40;;;;;;5025676;28;20347;-64
2022/07/04 11:31:02;;;;;;;5.50;1.67;;;25.10;51.70;;;;;;5015938;28;20108;-63
2022/07/04 11:33:30;;;;;;;6.10;1.85;;;25.40;51.30;;;;;;5021201;28;20060;-63
2022/07/04 11:36:20;;;;;;;5.10;1.73;;;25.60;50.90;;;;;;5010517;28;20064;-63
2022/07/04 11:38:53;;;;;;;7.72;2.00;;;25.80;50.40;;;;;;5013896;28;20040;-63
2022/07/04 11:47:16;;;;;;;4.55;1.50;;;26.30;49.70;;;;;;5008928;28;20061;-65
2022/07/04 11:49:55;;;;;;;4.57;1.50;;;26.40;49.40;;;;;;5027449;28;20083;-65
2022/07/04 11:52:24;;;;;;;3.80;1.50;;;26.40;49.00;;;;;;5008027;28;20038;-65
2022/07/04 11:54:51;;;;;;;4.88;1.80;;;26.40;48.90;;;;;;5004677;28;20398;-65
2022/07/04 11:57:21;;;;;;;3.47;1.40;;;26.40;48.70;;;;;;5011542;28;20057;-65
2022/07/04 12:00:05;;;;;;;4.63;1.92;;;26.40;48.50;;;;;;5013876;28;20030;-65
2022/07/04 12:02:32;;;;;;;4.50;1.60;;;26.50;48.40;;;;;;5010476;28;20033;-64
2022/07/04 12:04:59;;;;;;;4.38;1.42;;;26.40;48.30;;;;;;5012007;28;20083;-64
2022/07/04 12:07:27;;;;;;;3.65;1.40;;;26.50;48.30;;;;;;4994341;28;20499;-65
2022/07/04 12:09:54;;;;;;;5.68;1.80;;;26.40;48.00;;;;;;5010094;28;20053;-64
2022/07/04 12:12:21;;;;;;;3.42;1.50;;;26.30;48.00;;;;;;5013338;28;20026;-65
2022/07/04 12:14:56;;;;;;;3.72;1.63;;;26.20;48.20;;;;;;5011530;28;20093;-65
2022/07/04 12:17:22;;;;;;;5.57;2.28;;;26.10;48.10;;;;;;5008233;28;20022;-65
2022/07/04 12:19:51;;;;;;;5.55;2.33;;;26.10;48.20;;;;;;5004657;28;20030;-65
2022/07/04 12:22:30;;;;;;;4.82;1.80;;;26.10;48.00;;;;;;5013220;28;20037;-65
2022/07/04 12:24:57;;;;;;;3.95;1.58;;;26.10;48.40;;;;;;5012380;28;20033;-64
2022/07/04 12:27:24;;;;;;;5.82;1.70;;;26.10;48.50;;;;;;5013661;28;20092;-65
2022/07/04 12:29:51;;;;;;;4.18;1.70;;;26.10;48.50;;;;;;5013578;28;20038;-65
2022/07/04 12:32:17;;;;;;;4.60;1.65;;;26.00;48.40;;;;;;5014958;28;20038;-65
2022/07/04 12:34:44;;;;;;;4.80;1.63;;;25.90;48.10;;;;;;5014851;28;20034;-65
2022/07/04 12:37:11;;;;;;;3.95;1.67;;;25.80;48.10;;;;;;5014010;28;20037;-65
2022/07/04 12:39:39;;;;;;;4.45;1.80;;;25.80;48.00;;;;;;5014525;28;20044;-65
2022/07/04 12:42:15;;;;;;;4.93;1.70;;;25.70;47.80;;;;;;5015740;28;20033;-65
2022/07/04 12:44:42;;;;;;;3.67;1.90;;;25.70;47.90;;;;;;5018192;28;20107;-65
2022/07/04 12:47:09;;;;;;;3.78;1.50;;;25.70;48.00;;;;;;5017347;28;20060;-65
2022/07/04 12:49:35;;;;;;;3.58;1.58;;;25.60;48.20;;;;;;5000741;28;20037;-65
2022/07/04 12:52:10;;;;;;;6.35;1.70;;;25.60;48.20;;;;;;5015415;28;20543;-65
2022/07/04 12:54:36;;;;;;;5.30;1.60;;;25.60;48.00;;;;;;5016203;28;20040;-65
2022/07/04 12:57:18;;;;;;;2.80;1.40;;;25.60;47.80;;;;;;5015916;28;20034;-65
2022/07/04 12:59:44;;;;;;;3.83;1.70;;;25.60;47.30;;;;;;5017017;28;20308;-65
2022/07/04 13:02:11;;;;;;;3.58;1.60;;;25.50;47.30;;;;;;5017804;28;20028;-65
2022/07/04 13:04:38;;;;;;;5.07;1.80;;;25.50;47.20;;;;;;5016576;28;20342;-66
2022/07/04 13:07:15;;;;;;;3.97;1.88;;;25.50;47.20;;;;;;5022985;28;20037;-62
2022/07/04 13:09:45;;;;;;;3.53;1.50;;;25.50;46.40;;;;;;5010441;28;20121;-63
2022/07/04 13:12:24;;;;;;;4.03;1.50;;;25.40;46.40;;;;;;5030207;28;20026;-64